EGHIEGAC

Guest
Details From EGHI - Southampton
To EGAC - Belfast City
Flight Number -
Tags generated
Created
Modified
Stats Distance 282 nm / 522 km
Max Altitude 34,000 ft / 10,363 m
Waypoints 4
Social Downloads 0
Likes 0
Share VATSIM

Download

Looking for another format? Having issues loading an existing format? Contact us
Advertisement - Login to hide

Notes

Basic altitude profile: - Ascent Rate: 1800ft/min - Ascent Speed: 220kts - Cruise Altitude: 15000ft - Cruise Speed: 220kts - Descent Rate: 1500ft/min - Descent Speed: 220kts Options: - Use NATs: no - Use PACOTS: no - Use low airways: no - Use high airways: yes

Route

EGHI WD2 TB2 VYL EGAC

ID Type Via Altitude Latitude Longitude Leg Dist Tot Dist Heading (true) Name
O EGHI APT - 0 ft / 0 m 50.95026˚ -1.35681˚ - 0 nm - Southampton
WD2 VOR - 34,000 ft / 10,363 m 52.38333˚ -2.46667˚ 95 nm 95 nm 335° / 334° -
VYL VOR TB2 (AWY-HI) 24,500 ft / 7,468 m 53.25742˚ -4.54414˚ 91 nm 187 nm 306° / 304° -
O EGAC APT - 0 ft / 0 m 54.61811˚ -5.87258˚ 94 nm 281 nm 331° / 330° Belfast City

Altitude Profile

Advertisement - Login to hide

Weather


0- 5 10 15 20 25 30 35+ Temperature / ° C

Clouds and Precipitation
Forecast for 2017-12-14 18:00 UTC. Updated 2 hours ago

Ground ~20,000 ft ~40,000 ft Winds

EGHI

Details ICAO EGHI (SOU)
Name Southampton
Region United Kingdom
Timezone Europe/London (UTC+0.0)
Stats Elevation 44 ft / 13 m (AMSL)
Location 50.950255° -1.356806°
Runways 1
Magnetic Variation 0.813° W

METAR

EGHI 141920Z VRB03KT 9999 VCSH FEW016 SCT035 03/02 Q0989

Decode

TAF

Not found

Departure Runways

ID Width Length Bearing (true) Bearing (mag) Surface Threshold Offset Overrun Length
02 121 ft / 37 m 5,650 ft / 1,722 m 19.33° 20.14° Asphalt 240 ft / 73 m 0 ft / 0 m
20 121 ft / 37 m 5,650 ft / 1,722 m 199.34° 200.15° Asphalt 144 ft / 44 m 0 ft / 0 m

EGAC

Details ICAO EGAC (BHD)
Name Belfast City
Region United Kingdom
Timezone Europe/London (UTC+0.0)
Stats Elevation 15 ft / 5 m (AMSL)
Location 54.618108° -5.872575°
Runways 1
Magnetic Variation 3.090° W

METAR

EGAC 141920Z 26012G23KT 9000 -RA FEW022 SCT033 BKN049 05/03 Q0986

Decode

TAF

Not found

Destination Runways

ID Width Length Bearing (true) Bearing (mag) Surface Threshold Offset Overrun Length
04 148 ft / 45 m 6,009 ft / 1,832 m 34.93° 38.02° Asphalt 302 ft / 92 m 0 ft / 0 m
22 148 ft / 45 m 6,009 ft / 1,832 m 214.94° 218.03° Asphalt 0 ft / 0 m 0 ft / 0 m

Approach Navaids

Runway Type Ident Frequency Range Bearing (true) Bearing (mag) Slope Elevation
04 Localiser HBD 108.10 MHz 18 nm / 33 km 34.92° 38.01° - 15 ft / 5 m (AMSL)
04 DME HBD 108.10 MHz 18 nm / 33 km - - - 30 ft / 9 m (AMSL)
22 Localiser IBFH 108.10 MHz 18 nm / 33 km 214.69° 217.78° - 15 ft / 5 m (AMSL)
22 Glidescope IBFH 108.10 MHz 10 nm / 19 km 214.94° 218.03° 3.00° 50 ft / 15 m (AMSL)
22 DME IBFH 108.10 MHz 18 nm / 33 km - - - 30 ft / 9 m (AMSL)

Popular Alternatives